Daytona Beach, Florida
Current Conditions -  °F | °C
As of 6:53 PM on Friday 24 Oct 2014 (Local Time) from KDAB Reporting Station
Scattered Clouds Scattered Clouds  
Wind Chill: 71°   Ceiling: Unl
Heat Index: 71°   Visibility: 10mi
Dew Point: 58°   Wind: 6mph
Humidity: 63%   Direction: 360°N
Pressure: 29.94"   Gusts: NA
Location:  29.2°N, 81.04°W
Report Text: KDAB 242253Z 36005KT 10SM SCT042 SCT130 22/14 A2994 RMK AO2 SLP136 T02170144
Loading
Personal Weather Stations






























Interactive Weather Map New forecast layout! Learn more

10-Day Weather Forecast

Advertisements
Track Severe Weather on mobile